Time;durP1;ratioP1;P1;durP2;ratioP2;P2;SDS_P1;SDS_P2;PMS_P1;PMS_P2;Temp;Humidity;BMP_temperature;BMP_pressure;BME280_temperature;BME280_humidity;BME280_pressure;Samples;Min_cycle;Max_cycle;Signal;HPM_P1;HPM_P2
2022/09/10 00:02:05;;;;;;;150.47;145.30;;;14.80;99.90;;;;;;5024840;28;20548;-85
2022/09/10 00:04:32;;;;;;;196.97;190.77;;;14.90;99.90;;;;;;5030359;28;20449;-84
2022/09/10 00:06:59;;;;;;;222.60;215.63;;;14.70;99.90;;;;;;5005424;28;20458;-84
2022/09/10 00:09:26;;;;;;;267.47;259.27;;;14.70;99.90;;;;;;4998100;28;20485;-84
2022/09/10 00:11:54;;;;;;;300.27;290.57;;;14.60;99.90;;;;;;5008805;28;20455;-85
2022/09/10 00:14:23;;;;;;;298.33;288.53;;;14.50;99.90;;;;;;5017457;28;20836;-84
2022/09/10 00:16:50;;;;;;;303.57;293.67;;;14.60;99.90;;;;;;5002184;28;20455;-85
2022/09/10 00:19:17;;;;;;;269.37;260.43;;;14.60;99.90;;;;;;4997941;28;20470;-84
2022/09/10 00:21:45;;;;;;;248.57;240.70;;;14.70;99.90;;;;;;5011027;28;20456;-85
2022/09/10 00:24:12;;;;;;;195.07;188.77;;;14.70;99.90;;;;;;5016944;28;20464;-84
2022/09/10 00:26:40;;;;;;;149.67;144.43;;;14.80;99.90;;;;;;5016208;28;20460;-84
2022/09/10 00:29:10;;;;;;;126.00;121.70;;;14.90;99.90;;;;;;5017280;28;20485;-84
2022/09/10 00:31:37;;;;;;;98.40;95.10;;;15.00;99.90;;;;;;5006195;28;20458;-85
2022/09/10 00:34:05;;;;;;;88.07;84.40;;;15.10;99.90;;;;;;5006205;28;20465;-84
2022/09/10 00:36:35;;;;;;;71.50;68.70;;;15.10;99.90;;;;;;5017678;28;20569;-84
2022/09/10 00:39:06;;;;;;;74.23;71.63;;;15.30;99.90;;;;;;5009166;28;20475;-85
2022/09/10 00:41:34;;;;;;;54.70;52.40;;;15.30;99.90;;;;;;5006684;28;20473;-85
2022/09/10 00:44:04;;;;;;;44.40;42.30;;;15.40;99.90;;;;;;5016842;28;20939;-84
2022/09/10 00:46:42;;;;;;;42.00;40.27;;;15.40;99.90;;;;;;5010938;28;20454;-85
2022/09/10 00:49:14;;;;;;;38.70;37.10;;;15.30;99.90;;;;;;4998347;28;20565;-85
2022/09/10 00:51:41;;;;;;;35.87;34.10;;;15.40;99.90;;;;;;5004836;28;20450;-84
2022/09/10 00:54:08;;;;;;;37.07;35.37;;;15.50;99.90;;;;;;5018051;28;20542;-85
2022/09/10 00:56:35;;;;;;;35.03;33.37;;;15.50;99.90;;;;;;5016113;28;20458;-85
2022/09/10 00:59:04;;;;;;;31.60;30.30;;;15.50;99.90;;;;;;5017985;28;20481;-85
2022/09/10 01:01:32;;;;;;;21.87;20.70;;;15.60;99.90;;;;;;5012026;28;21173;-85
2022/09/10 01:04:01;;;;;;;28.17;26.87;;;15.70;99.20;;;;;;4997775;28;20473;-84
2022/09/10 01:06:28;;;;;;;24.47;23.17;;;15.60;99.90;;;;;;5001384;28;20457;-84
2022/09/10 01:08:55;;;;;;;22.20;20.97;;;15.80;99.10;;;;;;5015123;28;20548;-84
2022/09/10 01:11:49;;;;;;;22.07;20.87;;;15.80;99.00;;;;;;5005591;28;21042;-84
2022/09/10 01:14:34;;;;;;;17.83;16.57;;;15.70;99.20;;;;;;4978027;28;20484;-84
2022/09/10 01:17:10;;;;;;;18.80;17.60;;;15.80;98.90;;;;;;5009560;28;20450;-85
2022/09/10 01:20:04;;;;;;;15.50;14.50;;;15.80;98.40;;;;;;5015787;28;20995;-84
2022/09/10 01:22:41;;;;;;;18.10;17.10;;;15.70;98.60;;;;;;4997495;28;20460;-84
2022/09/10 01:25:16;;;;;;;14.43;13.63;;;15.70;99.00;;;;;;4997629;28;20551;-85
2022/09/10 01:27:46;;;;;;;20.93;19.83;;;15.70;98.70;;;;;;5016256;28;20965;-85
2022/09/10 01:30:18;;;;;;;23.07;21.97;;;15.60;99.40;;;;;;5017063;28;20478;-85
2022/09/10 01:32:55;;;;;;;28.07;26.47;;;15.70;99.90;;;;;;4978637;28;20514;-84
2022/09/10 01:35:27;;;;;;;23.90;22.70;;;15.70;99.90;;;;;;4991525;28;20472;-85
2022/09/10 01:37:57;;;;;;;25.87;24.57;;;15.70;99.90;;;;;;5020418;28;21044;-85
2022/09/10 01:40:28;;;;;;;28.93;27.43;;;15.70;99.90;;;;;;5016257;28;20472;-85
2022/09/10 01:43:00;;;;;;;27.80;26.40;;;15.60;99.90;;;;;;5001169;28;20508;-85
2022/09/10 01:45:28;;;;;;;27.40;25.80;;;15.60;99.90;;;;;;5005939;28;20511;-85
2022/09/10 01:48:13;;;;;;;24.63;23.43;;;15.70;99.90;;;;;;5021217;28;20492;-84
2022/09/10 01:50:46;;;;;;;29.10;27.80;;;15.70;99.90;;;;;;5014945;28;20472;-85
2022/09/10 01:53:29;;;;;;;23.80;22.60;;;15.70;99.90;;;;;;5001671;28;20462;-84
2022/09/10 01:56:04;;;;;;;21.27;19.90;;;15.70;99.90;;;;;;5008477;28;20458;-85
2022/09/10 01:58:36;;;;;;;20.70;19.63;;;15.70;99.60;;;;;;5020763;28;20477;-84
2022/09/10 02:01:13;;;;;;;27.90;26.30;;;15.60;99.50;;;;;;5004604;28;20456;-85
2022/09/10 02:03:44;;;;;;;26.90;25.40;;;15.60;99.90;;;;;;5000489;28;20459;-85
2022/09/10 02:06:15;;;;;;;20.93;19.73;;;15.70;99.70;;;;;;5015998;28;20450;-84
2022/09/10 02:08:45;;;;;;;21.40;20.07;;;15.70;99.60;;;;;;5020623;28;20491;-85
2022/09/10 02:11:13;;;;;;;24.93;23.47;;;15.70;99.20;;;;;;5004507;28;20451;-85
2022/09/10 02:13:42;;;;;;;23.50;22.00;;;15.70;99.60;;;;;;5000456;28;20452;-84
2022/09/10 02:16:14;;;;;;;23.93;22.57;;;15.80;99.30;;;;;;5014055;28;20952;-85
2022/09/10 02:18:42;;;;;;;22.87;21.40;;;15.70;99.50;;;;;;5009686;28;20480;-84
2022/09/10 02:21:10;;;;;;;23.67;21.80;;;15.60;99.20;;;;;;5001164;28;20521;-85
2022/09/10 02:23:43;;;;;;;21.90;20.40;;;15.80;99.60;;;;;;5009961;28;20469;-83
2022/09/10 02:26:10;;;;;;;26.97;25.57;;;15.80;99.30;;;;;;5020033;28;20457;-85
2022/09/10 02:28:37;;;;;;;22.20;20.93;;;15.70;99.80;;;;;;5010878;28;20473;-85
2022/09/10 02:31:05;;;;;;;21.40;20.20;;;15.70;99.50;;;;;;5000363;28;20461;-84
2022/09/10 02:33:32;;;;;;;24.90;23.50;;;15.70;99.20;;;;;;4999782;28;20529;-85
2022/09/10 02:35:59;;;;;;;23.47;22.10;;;15.80;99.40;;;;;;4999907;28;20455;-84
2022/09/10 02:38:28;;;;;;;25.97;24.13;;;15.80;99.20;;;;;;5000428;28;20480;-85
2022/09/10 02:40:58;;;;;;;19.40;17.80;;;15.80;99.20;;;;;;5000352;28;20462;-85
2022/09/10 02:43:24;;;;;;;19.00;17.27;;;15.80;98.60;;;;;;5018606;28;20450;-85
2022/09/10 02:45:55;;;;;;;18.17;16.90;;;15.80;98.50;;;;;;5018460;28;20846;-85
2022/09/10 02:48:24;;;;;;;16.57;15.53;;;15.80;98.30;;;;;;5001932;28;21002;-85
2022/09/10 02:50:51;;;;;;;13.60;12.63;;;15.80;98.30;;;;;;4999675;28;21003;-85
2022/09/10 02:53:18;;;;;;;16.70;15.70;;;15.90;98.40;;;;;;5016997;28;20972;-85
2022/09/10 02:55:46;;;;;;;16.93;15.43;;;15.80;98.80;;;;;;5006583;28;20869;-85
2022/09/10 02:58:13;;;;;;;19.17;18.10;;;15.70;98.60;;;;;;5002084;28;21002;-85
2022/09/10 03:00:40;;;;;;;19.33;17.93;;;15.70;98.80;;;;;;5003170;28;20455;-85
2022/09/10 03:03:07;;;;;;;20.13;18.93;;;15.80;98.80;;;;;;5000165;28;20456;-85
2022/09/10 03:05:37;;;;;;;19.10;17.60;;;15.80;99.00;;;;;;5007779;28;20455;-84
2022/09/10 03:08:04;;;;;;;21.70;20.60;;;15.80;98.80;;;;;;5018754;28;20446;-85
2022/09/10 03:10:31;;;;;;;24.40;21.97;;;15.70;99.00;;;;;;5010464;28;20482;-84
2022/09/10 03:12:59;;;;;;;24.10;22.57;;;15.70;99.00;;;;;;5017609;28;20458;-84
2022/09/10 03:15:26;;;;;;;20.87;19.67;;;15.80;99.10;;;;;;5015398;28;20538;-85
2022/09/10 03:17:53;;;;;;;20.60;19.30;;;15.80;98.80;;;;;;5010201;28;20455;-84
2022/09/10 03:20:21;;;;;;;22.67;20.97;;;15.80;98.90;;;;;;5020717;28;20450;-84
2022/09/10 03:22:50;;;;;;;25.37;24.27;;;15.80;98.80;;;;;;5021872;28;20458;-85
2022/09/10 03:25:17;;;;;;;24.50;23.20;;;15.70;99.20;;;;;;5021114;28;20543;-85
2022/09/10 03:27:44;;;;;;;26.27;24.70;;;15.70;99.60;;;;;;5022552;28;20458;-84
2022/09/10 03:30:11;;;;;;;25.37;23.97;;;15.60;99.90;;;;;;5017717;28;20480;-85
2022/09/10 03:32:38;;;;;;;32.17;30.57;;;15.60;99.90;;;;;;5016114;28;20470;-85
2022/09/10 03:35:05;;;;;;;37.30;35.77;;;15.60;99.90;;;;;;5000022;28;20463;-85
2022/09/10 03:37:32;;;;;;;40.07;38.20;;;15.70;99.90;;;;;;5001559;28;20458;-84
2022/09/10 03:40:00;;;;;;;47.57;45.57;;;15.60;99.90;;;;;;4981815;28;20868;-84
2022/09/10 03:42:27;;;;;;;55.10;52.77;;;15.50;99.90;;;;;;5006331;28;20463;-85
2022/09/10 03:44:55;;;;;;;71.13;68.33;;;15.50;99.90;;;;;;5004563;28;20451;-84
2022/09/10 03:47:21;;;;;;;81.07;77.40;;;15.40;99.90;;;;;;5018965;28;20454;-84
2022/09/10 03:49:49;;;;;;;69.70;66.50;;;15.40;99.90;;;;;;5012983;28;20479;-85
2022/09/10 03:52:16;;;;;;;63.23;60.47;;;15.60;99.90;;;;;;5002622;28;20486;-85
2022/09/10 03:54:44;;;;;;;63.47;60.47;;;15.50;99.90;;;;;;5001438;28;20455;-84
2022/09/10 03:57:12;;;;;;;65.83;63.03;;;15.50;99.90;;;;;;5009572;28;20457;-84
2022/09/10 03:59:40;;;;;;;67.67;64.87;;;15.60;99.90;;;;;;5010476;28;20466;-84
2022/09/10 04:02:08;;;;;;;73.80;70.77;;;15.60;99.90;;;;;;5004395;28;20795;-84
2022/09/10 04:04:36;;;;;;;75.20;72.20;;;15.60;99.90;;;;;;4997753;28;20991;-84
2022/09/10 04:07:03;;;;;;;84.50;81.40;;;15.70;99.90;;;;;;5015923;28;20453;-85
2022/09/10 04:09:31;;;;;;;85.60;82.60;;;15.70;99.90;;;;;;5017851;28;20512;-84
2022/09/10 04:11:58;;;;;;;131.10;126.70;;;15.60;99.90;;;;;;5000811;28;20459;-84
2022/09/10 04:14:26;;;;;;;175.23;169.17;;;15.60;99.90;;;;;;4997916;28;20458;-84
2022/09/10 04:16:53;;;;;;;221.90;214.80;;;15.50;99.90;;;;;;5013281;28;20831;-85
2022/09/10 04:19:20;;;;;;;239.70;231.77;;;15.40;99.90;;;;;;4999658;28;20846;-85
2022/09/10 04:21:47;;;;;;;256.40;247.40;;;15.40;99.90;;;;;;4996862;28;20461;-85
2022/09/10 04:24:14;;;;;;;271.30;261.60;;;15.30;99.90;;;;;;4997131;28;20981;-85
2022/09/10 04:26:41;;;;;;;272.40;263.30;;;15.30;99.90;;;;;;4996470;28;20461;-85
2022/09/10 04:29:08;;;;;;;264.37;255.60;;;15.30;99.90;;;;;;4997588;28;20475;-85
2022/09/10 04:31:36;;;;;;;268.20;259.30;;;15.40;99.90;;;;;;5010751;28;20483;-84
2022/09/10 04:34:03;;;;;;;254.20;245.50;;;15.30;99.90;;;;;;5017113;28;20584;-85
2022/09/10 04:36:29;;;;;;;263.27;253.90;;;15.20;99.90;;;;;;4998016;28;20487;-85
2022/09/10 04:38:57;;;;;;;277.97;268.37;;;15.30;99.90;;;;;;4998097;28;20859;-85
2022/09/10 04:41:23;;;;;;;277.10;266.90;;;15.20;99.90;;;;;;5005720;28;20455;-84
2022/09/10 04:43:50;;;;;;;264.33;255.03;;;15.40;99.90;;;;;;4997259;28;20461;-84
2022/09/10 04:46:17;;;;;;;253.57;244.53;;;15.30;99.90;;;;;;5013589;28;20456;-84
2022/09/10 04:48:46;;;;;;;231.87;223.63;;;15.30;99.90;;;;;;5017372;28;21056;-84
2022/09/10 04:51:13;;;;;;;196.87;189.73;;;15.30;99.90;;;;;;5003880;28;20551;-83
2022/09/10 04:53:40;;;;;;;180.53;173.87;;;15.40;99.90;;;;;;5013704;28;20457;-85
2022/09/10 04:56:08;;;;;;;178.73;172.73;;;15.30;99.90;;;;;;5018031;28;20469;-84
2022/09/10 04:58:34;;;;;;;178.93;172.13;;;15.40;99.90;;;;;;5007848;28;20847;-83
2022/09/10 05:01:01;;;;;;;169.10;162.43;;;15.40;99.90;;;;;;4997661;28;20450;-85
2022/09/10 05:03:28;;;;;;;163.70;158.20;;;15.40;99.90;;;;;;5018607;28;20453;-86
2022/09/10 05:05:56;;;;;;;170.17;163.93;;;15.50;99.90;;;;;;5009111;28;20489;-85
2022/09/10 05:08:25;;;;;;;143.73;138.63;;;15.50;99.90;;;;;;4998768;28;20482;-81
2022/09/10 05:10:52;;;;;;;138.83;133.83;;;15.50;99.90;;;;;;4998208;28;20478;-84
2022/09/10 05:13:19;;;;;;;145.17;139.97;;;15.50;99.90;;;;;;5017632;28;20456;-85
2022/09/10 05:15:45;;;;;;;145.77;140.50;;;15.50;99.90;;;;;;5012160;28;20461;-84
2022/09/10 05:18:12;;;;;;;180.43;174.13;;;15.60;99.90;;;;;;4999307;28;20477;-85
2022/09/10 05:20:39;;;;;;;162.90;156.80;;;15.50;99.90;;;;;;4996617;28;20462;-85
2022/09/10 05:23:07;;;;;;;111.83;107.83;;;15.60;99.90;;;;;;5012574;28;20887;-86
2022/09/10 05:25:34;;;;;;;115.83;111.27;;;15.60;99.90;;;;;;5016740;28;20462;-84
2022/09/10 05:28:01;;;;;;;106.30;102.53;;;15.80;99.90;;;;;;5017438;28;20468;-84
2022/09/10 05:30:31;;;;;;;96.73;92.83;;;15.60;99.90;;;;;;5006113;28;20848;-85
2022/09/10 05:32:59;;;;;;;113.33;108.93;;;15.80;99.90;;;;;;4997483;28;20459;-84
2022/09/10 05:35:25;;;;;;;137.33;132.37;;;15.70;99.90;;;;;;5010299;28;20460;-86
2022/09/10 05:37:52;;;;;;;142.23;137.10;;;15.60;99.90;;;;;;5016730;28;20461;-84
2022/09/10 05:40:21;;;;;;;151.70;146.40;;;15.70;99.90;;;;;;5004057;28;20458;-84
2022/09/10 05:42:47;;;;;;;158.53;153.07;;;15.70;99.90;;;;;;4997665;28;20465;-84
2022/09/10 05:45:14;;;;;;;153.00;147.37;;;15.70;99.90;;;;;;5008529;28;20456;-84
2022/09/10 05:47:42;;;;;;;161.37;155.30;;;15.60;99.90;;;;;;5018729;28;20545;-86
2022/09/10 05:50:10;;;;;;;166.00;160.20;;;15.60;99.90;;;;;;5007903;28;20570;-85
2022/09/10 05:52:37;;;;;;;170.03;163.60;;;15.60;99.90;;;;;;4999766;28;20450;-86
2022/09/10 05:55:04;;;;;;;193.63;186.77;;;15.70;99.90;;;;;;5013737;28;20959;-85
2022/09/10 05:57:32;;;;;;;196.97;189.23;;;15.60;99.90;;;;;;5019380;28;20457;-84
2022/09/10 06:00:00;;;;;;;188.50;181.80;;;15.70;99.90;;;;;;5010110;28;20864;-83
2022/09/10 06:02:26;;;;;;;189.73;183.27;;;15.70;99.90;;;;;;5005629;28;20980;-83
2022/09/10 06:04:53;;;;;;;194.23;187.53;;;15.70;99.90;;;;;;5008346;28;20460;-83
2022/09/10 06:07:20;;;;;;;240.30;231.77;;;15.60;99.90;;;;;;5001060;28;20543;-82
2022/09/10 06:09:47;;;;;;;330.10;317.83;;;15.60;99.90;;;;;;5015099;28;20486;-84
2022/09/10 06:12:15;;;;;;;361.50;347.63;;;15.50;99.90;;;;;;5020459;28;20468;-83
2022/09/10 06:14:44;;;;;;;406.47;390.53;;;15.40;99.90;;;;;;5017292;28;20455;-83
2022/09/10 06:17:11;;;;;;;489.93;469.77;;;15.50;99.90;;;;;;5017350;28;20460;-83
2022/09/10 06:19:38;;;;;;;615.67;586.87;;;15.40;99.90;;;;;;5016146;28;20473;-83
2022/09/10 06:22:05;;;;;;;668.03;633.70;;;15.40;99.90;;;;;;5019700;28;20453;-84
2022/09/10 06:24:32;;;;;;;719.70;679.80;;;15.40;99.90;;;;;;5020366;28;21091;-82
2022/09/10 06:26:59;;;;;;;737.63;693.50;;;15.50;99.90;;;;;;5022107;28;20456;-84
2022/09/10 06:29:25;;;;;;;765.77;720.17;;;15.40;99.90;;;;;;5024060;28;20478;-84
2022/09/10 06:31:53;;;;;;;773.23;725.03;;;15.50;99.90;;;;;;5022696;28;20484;-84
2022/09/10 06:34:20;;;;;;;762.77;716.03;;;15.50;99.90;;;;;;5022506;28;20450;-84
2022/09/10 06:36:50;;;;;;;771.50;723.30;;;15.50;99.90;;;;;;5024690;28;20488;-84
2022/09/10 06:39:17;;;;;;;786.73;736.43;;;15.60;99.90;;;;;;5024390;28;20529;-84
2022/09/10 06:41:44;;;;;;;788.07;736.90;;;15.70;99.90;;;;;;5022312;28;20453;-84
2022/09/10 06:44:11;;;;;;;768.80;720.00;;;15.70;99.90;;;;;;5023189;28;20455;-83
2022/09/10 06:46:38;;;;;;;786.33;734.53;;;15.70;99.90;;;;;;5021143;28;20455;-84
2022/09/10 06:49:06;;;;;;;776.53;727.47;;;15.70;99.90;;;;;;5020609;28;20845;-84
2022/09/10 06:51:33;;;;;;;750.57;703.50;;;15.80;99.90;;;;;;4990824;28;20473;-85
2022/09/10 06:54:01;;;;;;;771.87;722.07;;;15.70;99.90;;;;;;5020295;28;20461;-84
2022/09/10 06:56:28;;;;;;;753.77;705.70;;;15.70;99.90;;;;;;5023919;28;20461;-84
2022/09/10 06:58:56;;;;;;;769.13;718.63;;;15.60;99.90;;;;;;5024488;28;20997;-84
2022/09/10 07:01:24;;;;;;;783.80;730.10;;;15.70;99.90;;;;;;5018870;28;20513;-85
2022/09/10 07:03:55;;;;;;;809.20;753.13;;;15.60;99.90;;;;;;5004000;28;20471;-84
2022/09/10 07:06:24;;;;;;;793.47;739.00;;;15.50;99.90;;;;;;5003424;28;20964;-84
2022/09/10 07:08:55;;;;;;;786.53;731.37;;;15.50;99.90;;;;;;5002856;28;20485;-85
2022/09/10 07:11:22;;;;;;;802.77;745.57;;;15.50;99.90;;;;;;5013090;28;20555;-85
2022/09/10 07:13:51;;;;;;;810.90;751.73;;;15.50;99.90;;;;;;5000664;28;20458;-85
2022/09/10 07:16:18;;;;;;;819.07;757.73;;;15.50;99.90;;;;;;5016753;28;20501;-85
2022/09/10 07:18:48;;;;;;;816.13;755.10;;;15.60;99.90;;;;;;5023852;28;20488;-85
2022/09/10 07:21:17;;;;;;;818.03;756.60;;;15.60;99.90;;;;;;5023610;28;20457;-85
2022/09/10 07:23:47;;;;;;;807.83;747.20;;;15.50;99.90;;;;;;5020663;28;20454;-84
2022/09/10 07:26:15;;;;;;;793.17;733.07;;;15.50;99.90;;;;;;5006506;28;20544;-85
2022/09/10 07:28:42;;;;;;;806.53;744.47;;;15.60;99.90;;;;;;5024417;28;20468;-84
2022/09/10 07:31:15;;;;;;;812.30;747.87;;;15.70;99.90;;;;;;5030531;28;20491;-84
2022/09/10 07:33:42;;;;;;;797.27;735.60;;;15.70;99.90;;;;;;5027098;28;20546;-85
2022/09/10 07:36:11;;;;;;;808.27;747.80;;;15.80;99.90;;;;;;5013300;28;20447;-85
2022/09/10 07:38:38;;;;;;;804.60;745.00;;;15.80;99.90;;;;;;5002195;28;20477;-85
2022/09/10 07:41:07;;;;;;;791.00;731.30;;;15.90;99.90;;;;;;5002644;28;20537;-86
2022/09/10 07:43:34;;;;;;;775.73;718.23;;;16.10;99.90;;;;;;5014801;28;20530;-85
2022/09/10 07:46:01;;;;;;;759.80;705.53;;;16.20;99.90;;;;;;5018542;28;20955;-85
2022/09/10 07:48:27;;;;;;;738.73;688.10;;;16.30;99.90;;;;;;5017778;28;20482;-85
2022/09/10 07:51:02;;;;;;;698.97;655.97;;;16.50;99.90;;;;;;5006736;28;21037;-85
2022/09/10 07:53:28;;;;;;;705.03;661.13;;;16.50;99.90;;;;;;5011516;28;20883;-86
2022/09/10 07:56:00;;;;;;;730.67;683.57;;;16.50;99.90;;;;;;5006870;28;20460;-83
2022/09/10 07:58:28;;;;;;;674.87;636.00;;;16.60;99.90;;;;;;5021969;28;20480;-84
2022/09/10 08:00:59;;;;;;;651.33;616.77;;;16.70;99.90;;;;;;5028022;28;20458;-83
2022/09/10 08:03:26;;;;;;;623.80;592.33;;;16.60;99.90;;;;;;5020546;28;20499;-85
2022/09/10 08:05:53;;;;;;;618.23;585.67;;;16.60;99.90;;;;;;5017330;28;20467;-84
2022/09/10 08:08:20;;;;;;;615.23;583.47;;;16.80;99.90;;;;;;5022992;28;20541;-85
2022/09/10 08:10:48;;;;;;;594.33;565.93;;;16.80;99.90;;;;;;5020418;28;21000;-86
2022/09/10 08:13:15;;;;;;;549.27;525.33;;;16.90;99.90;;;;;;5009373;28;20876;-83
2022/09/10 08:15:44;;;;;;;525.63;503.90;;;16.90;99.90;;;;;;5012579;28;20482;-84
2022/09/10 08:18:13;;;;;;;393.60;380.07;;;17.00;99.90;;;;;;5002679;28;20534;-83
2022/09/10 08:20:40;;;;;;;457.80;440.70;;;17.00;99.90;;;;;;5003431;28;20479;-84
2022/09/10 08:23:09;;;;;;;439.03;423.00;;;17.20;99.90;;;;;;5009953;28;20456;-84
2022/09/10 08:25:36;;;;;;;403.57;389.27;;;17.30;99.90;;;;;;5020126;28;20975;-85
2022/09/10 08:28:03;;;;;;;345.17;333.87;;;17.40;99.90;;;;;;5019123;28;20474;-85
2022/09/10 08:30:31;;;;;;;280.40;271.13;;;17.50;99.90;;;;;;5020853;28;20466;-84
2022/09/10 08:32:59;;;;;;;309.33;299.43;;;17.50;99.90;;;;;;5017352;28;20456;-84
2022/09/10 08:35:26;;;;;;;152.00;146.30;;;17.70;99.90;;;;;;4999968;28;20452;-85
2022/09/10 08:37:53;;;;;;;92.63;88.97;;;17.80;99.90;;;;;;5000922;28;20464;-84
2022/09/10 08:40:22;;;;;;;147.50;141.73;;;17.80;99.90;;;;;;5008396;28;20492;-85
2022/09/10 08:42:51;;;;;;;77.63;74.37;;;17.90;99.90;;;;;;5014234;28;20457;-85
2022/09/10 08:45:31;;;;;;;67.27;64.20;;;18.00;99.60;;;;;;4999085;28;20875;-85
2022/09/10 08:48:04;;;;;;;83.50;79.70;;;17.70;98.40;;;;;;4999603;28;20532;-85
2022/09/10 08:50:39;;;;;;;96.30;92.67;;;18.00;99.90;;;;;;4999807;28;20450;-85
2022/09/10 08:53:22;;;;;;;98.47;94.67;;;17.90;99.20;;;;;;4999756;28;20443;-85
2022/09/10 08:55:55;;;;;;;77.00;73.50;;;17.90;99.90;;;;;;4999157;28;20452;-84
2022/09/10 08:58:29;;;;;;;39.33;37.23;;;17.80;99.00;;;;;;5006990;28;21065;-84
2022/09/10 09:01:06;;;;;;;83.00;79.23;;;17.70;99.80;;;;;;5019933;28;20931;-84
2022/09/10 09:03:44;;;;;;;149.90;144.70;;;17.60;99.90;;;;;;5018971;28;20517;-82
2022/09/10 09:06:23;;;;;;;146.50;141.00;;;17.40;99.90;;;;;;5018812;28;20451;-84
2022/09/10 09:08:51;;;;;;;200.03;193.43;;;17.30;99.90;;;;;;5019356;28;20955;-84
2022/09/10 09:11:28;;;;;;;265.93;257.00;;;17.20;99.90;;;;;;5019018;28;20485;-84
2022/09/10 09:14:20;;;;;;;154.50;148.77;;;17.10;99.90;;;;;;5008166;28;20536;-85
2022/09/10 09:16:59;;;;;;;362.60;350.23;;;16.90;99.90;;;;;;5000149;28;20456;-85
2022/09/10 09:19:33;;;;;;;508.87;488.87;;;16.70;99.90;;;;;;5017947;28;20539;-85
2022/09/10 09:22:07;;;;;;;660.00;632.70;;;16.70;99.90;;;;;;5023761;28;20972;-86
2022/09/10 09:24:45;;;;;;;703.87;671.83;;;16.50;99.90;;;;;;5010770;28;20494;-85
2022/09/10 09:27:15;;;;;;;713.47;678.27;;;16.50;99.90;;;;;;5013682;28;20560;-84
2022/09/10 09:29:47;;;;;;;772.37;729.97;;;16.70;99.90;;;;;;5006901;28;20574;-85
2022/09/10 09:32:17;;;;;;;731.93;694.67;;;16.80;99.90;;;;;;5012938;28;20558;-85
2022/09/10 09:34:49;;;;;;;751.73;710.00;;;16.90;99.90;;;;;;5010862;28;20455;-85
2022/09/10 09:37:20;;;;;;;723.37;685.60;;;17.00;99.90;;;;;;5013184;28;20451;-85
2022/09/10 09:39:53;;;;;;;732.73;693.63;;;17.10;99.90;;;;;;5020588;28;20474;-85
2022/09/10 09:42:24;;;;;;;666.10;635.70;;;17.20;99.90;;;;;;5011398;28;20446;-85
2022/09/10 09:44:59;;;;;;;609.57;585.07;;;17.20;99.90;;;;;;5015738;28;20537;-85
2022/09/10 09:47:26;;;;;;;619.93;594.23;;;17.20;99.90;;;;;;5011267;28;20492;-85
2022/09/10 09:49:54;;;;;;;607.70;581.60;;;17.20;99.90;;;;;;5023810;28;20473;-86
2022/09/10 09:52:23;;;;;;;605.03;579.63;;;17.20;99.90;;;;;;5010471;28;20478;-85
2022/09/10 09:54:53;;;;;;;579.27;555.70;;;17.10;99.90;;;;;;5006002;28;20531;-84
2022/09/10 09:57:21;;;;;;;598.53;572.60;;;17.10;99.90;;;;;;5023453;28;20466;-84
2022/09/10 09:59:48;;;;;;;551.13;528.57;;;17.10;99.90;;;;;;5026926;28;20478;-85
2022/09/10 10:02:18;;;;;;;545.60;523.77;;;17.10;99.90;;;;;;5012304;28;20483;-85
2022/09/10 10:05:03;;;;;;;500.23;480.93;;;17.20;99.90;;;;;;5006667;28;20835;-85
2022/09/10 10:07:32;;;;;;;537.80;516.13;;;17.10;99.90;;;;;;5021816;28;20450;-85
2022/09/10 10:10:00;;;;;;;434.00;418.40;;;17.10;99.90;;;;;;5013302;28;20494;-83
2022/09/10 10:12:30;;;;;;;402.17;388.03;;;17.20;99.90;;;;;;5013135;28;20487;-85
2022/09/10 10:14:57;;;;;;;387.13;373.23;;;17.20;99.90;;;;;;5015904;28;21013;-84
2022/09/10 10:17:36;;;;;;;428.93;414.17;;;17.20;99.90;;;;;;5018222;28;20458;-85
2022/09/10 10:20:07;;;;;;;217.73;210.27;;;17.50;99.90;;;;;;5015900;28;20478;-85
2022/09/10 10:22:34;;;;;;;234.30;226.27;;;17.60;99.90;;;;;;5020301;28;20457;-84
2022/09/10 10:25:03;;;;;;;97.90;93.70;;;17.80;99.90;;;;;;5024823;28;20551;-84
2022/09/10 10:27:32;;;;;;;42.33;39.83;;;17.90;99.60;;;;;;5007326;28;20462;-84
2022/09/10 10:30:04;;;;;;;29.77;28.10;;;18.00;98.70;;;;;;5004074;28;20470;-84
2022/09/10 10:32:39;;;;;;;15.03;12.60;;;18.00;98.30;;;;;;5008943;28;20481;-84
2022/09/10 10:35:23;;;;;;;18.67;17.07;;;17.80;97.30;;;;;;5015650;28;20451;-84
2022/09/10 10:38:05;;;;;;;25.90;24.03;;;17.90;98.00;;;;;;4999652;28;20959;-84
2022/09/10 10:40:35;;;;;;;11.00;8.97;;;18.20;96.50;;;;;;5015396;28;20456;-83
2022/09/10 10:43:14;;;;;;;15.33;13.97;;;18.10;95.10;;;;;;5009158;28;20456;-83
2022/09/10 10:45:51;;;;;;;16.00;14.63;;;18.00;97.10;;;;;;5021289;28;20451;-84
2022/09/10 10:48:27;;;;;;;49.70;47.30;;;17.80;98.30;;;;;;4987888;28;20509;-84
2022/09/10 10:51:03;;;;;;;48.77;46.33;;;17.50;99.90;;;;;;5004450;28;20454;-83
2022/09/10 10:53:52;;;;;;;148.87;143.37;;;17.30;99.90;;;;;;5021876;28;20905;-84
2022/09/10 10:56:27;;;;;;;189.30;182.77;;;17.00;99.90;;;;;;4985115;28;20453;-84
2022/09/10 10:59:11;;;;;;;219.33;211.37;;;17.00;99.90;;;;;;5002302;28;20483;-84
2022/09/10 11:01:44;;;;;;;278.00;268.73;;;17.00;99.90;;;;;;5004165;28;21174;-84
2022/09/10 11:04:25;;;;;;;547.93;526.17;;;16.80;99.90;;;;;;5025751;28;20618;-85
2022/09/10 11:07:00;;;;;;;675.83;643.27;;;16.60;99.90;;;;;;5025929;28;20479;-85
2022/09/10 11:09:32;;;;;;;688.17;655.13;;;16.70;99.90;;;;;;5031802;23;20490;-83
2022/09/10 11:12:03;;;;;;;768.00;724.00;;;16.80;99.90;;;;;;5017319;28;20481;-83
2022/09/10 11:14:36;;;;;;;665.23;633.53;;;17.20;99.90;;;;;;5016081;28;20486;-82
2022/09/10 11:17:08;;;;;;;582.90;557.90;;;17.30;99.90;;;;;;5020649;28;20461;-84
2022/09/10 11:19:40;;;;;;;474.93;457.13;;;17.40;99.90;;;;;;5037102;28;20472;-83
2022/09/10 11:22:14;;;;;;;456.70;440.00;;;17.50;99.90;;;;;;5033113;28;20853;-83
2022/09/10 11:24:45;;;;;;;473.37;456.00;;;17.40;99.90;;;;;;5033408;28;20964;-83
2022/09/10 11:27:16;;;;;;;435.60;420.10;;;17.50;99.90;;;;;;5019698;28;21010;-82
2022/09/10 11:29:47;;;;;;;470.07;453.00;;;17.70;99.90;;;;;;5011256;28;20486;-83
2022/09/10 11:32:24;;;;;;;369.50;356.93;;;17.90;99.90;;;;;;5012299;28;20473;-83
2022/09/10 11:35:01;;;;;;;312.30;302.47;;;17.90;99.90;;;;;;5012927;28;20459;-84
2022/09/10 11:37:43;;;;;;;162.00;156.10;;;17.90;99.90;;;;;;5012776;28;21220;-83
2022/09/10 11:40:17;;;;;;;156.23;150.60;;;17.70;99.90;;;;;;5012186;28;20466;-84
2022/09/10 11:42:51;;;;;;;228.73;221.40;;;17.50;99.90;;;;;;5013027;28;20464;-83
2022/09/10 11:45:22;;;;;;;308.23;298.37;;;17.20;99.90;;;;;;5011962;28;20484;-84
2022/09/10 11:47:55;;;;;;;454.77;439.07;;;17.30;99.90;;;;;;5012923;28;20499;-83
2022/09/10 11:50:28;;;;;;;422.63;408.03;;;17.30;99.90;;;;;;5012983;28;20483;-84
2022/09/10 11:52:58;;;;;;;469.23;451.83;;;17.30;99.90;;;;;;5012267;28;20520;-84
2022/09/10 11:55:33;;;;;;;506.20;487.37;;;17.40;99.90;;;;;;5012762;28;20863;-83
2022/09/10 11:58:04;;;;;;;466.70;449.93;;;17.70;99.90;;;;;;5010965;28;20445;-83
2022/09/10 12:00:35;;;;;;;378.33;365.20;;;17.90;99.90;;;;;;5012261;28;20481;-83
2022/09/10 12:03:19;;;;;;;261.90;253.40;;;18.20;99.90;;;;;;5011657;28;20454;-84
2022/09/10 12:05:59;;;;;;;237.30;229.60;;;18.20;99.90;;;;;;5010920;28;20466;-83
2022/09/10 12:08:40;;;;;;;312.60;301.67;;;18.40;99.90;;;;;;5008444;28;20960;-83
2022/09/10 12:11:26;;;;;;;185.80;179.10;;;18.80;99.70;;;;;;5012334;28;20445;-84
2022/09/10 12:13:53;;;;;;;50.40;47.90;;;18.90;99.40;;;;;;5012519;28;20898;-81
2022/09/10 12:16:30;;;;;;;59.40;56.37;;;18.60;98.30;;;;;;5012406;28;20468;-83
2022/09/10 12:18:59;;;;;;;76.17;72.70;;;18.30;99.10;;;;;;5012757;28;20482;-82
2022/09/10 12:21:32;;;;;;;45.73;43.00;;;18.10;99.90;;;;;;5011559;28;20513;-83
2022/09/10 12:24:03;;;;;;;127.87;122.93;;;17.70;99.90;;;;;;5004247;28;20450;-82
2022/09/10 12:26:40;;;;;;;154.77;148.60;;;17.40;99.90;;;;;;5012134;28;20459;-82
2022/09/10 12:29:24;;;;;;;232.27;224.60;;;17.30;99.90;;;;;;5012830;28;20486;-83
2022/09/10 12:32:27;;;;;;;382.53;368.90;;;17.20;99.90;;;;;;5012824;28;20458;-82